sensor_id;sensor_type;location;lat;lon;timestamp;pressure;altitude;pressure_sealevel;temperature;humidity
30636;BME280;17400;52.392;9.750;2023-12-07T00:00:19;101094.63;;;3.72;100.00
30636;BME280;17400;52.392;9.750;2023-12-07T00:02:47;101091.53;;;3.76;100.00
30636;BME280;17400;52.392;9.750;2023-12-07T00:05:15;101099.59;;;3.66;100.00
30636;BME280;17400;52.392;9.750;2023-12-07T00:07:42;101100.13;;;3.70;100.00
30636;BME280;17400;52.392;9.750;2023-12-07T00:10:10;101097.84;;;3.75;100.00
30636;BME280;17400;52.392;9.750;2023-12-07T00:12:39;101100.53;;;3.75;100.00
30636;BME280;17400;52.392;9.750;2023-12-07T00:15:08;101103.22;;;3.75;100.00
30636;BME280;17400;52.392;9.750;2023-12-07T00:17:35;101105.06;;;3.75;100.00
30636;BME280;17400;52.392;9.750;2023-12-07T00:20:04;101100.69;;;3.74;100.00
30636;BME280;17400;52.392;9.750;2023-12-07T00:22:32;101108.00;;;3.72;100.00
30636;BME280;17400;52.392;9.750;2023-12-07T00:24:59;101116.03;;;3.72;100.00
30636;BME280;17400;52.392;9.750;2023-12-07T00:27:27;101116.75;;;3.74;100.00
30636;BME280;17400;52.392;9.750;2023-12-07T00:29:56;101113.66;;;3.78;100.00
30636;BME280;17400;52.392;9.750;2023-12-07T00:32:24;101118.31;;;3.76;100.00
30636;BME280;17400;52.392;9.750;2023-12-07T00:34:54;101124.63;;;3.75;100.00
30636;BME280;17400;52.392;9.750;2023-12-07T00:37:22;101113.66;;;3.78;100.00
30636;BME280;17400;52.392;9.750;2023-12-07T00:39:50;101121.97;;;3.75;100.00
30636;BME280;17400;52.392;9.750;2023-12-07T00:42:17;101126.19;;;3.78;100.00
30636;BME280;17400;52.392;9.750;2023-12-07T00:44:45;101118.31;;;3.76;100.00
30636;BME280;17400;52.392;9.750;2023-12-07T00:47:14;101121.97;;;3.75;100.00
30636;BME280;17400;52.392;9.750;2023-12-07T00:49:42;101124.78;;;3.74;100.00
30636;BME280;17400;52.392;9.750;2023-12-07T00:52:09;101121.97;;;3.75;100.00
30636;BME280;17400;52.392;9.750;2023-12-07T00:54:37;101126.91;;;3.80;100.00
30636;BME280;17400;52.392;9.750;2023-12-07T00:57:05;101123.50;;;3.78;100.00
30636;BME280;17400;52.392;9.750;2023-12-07T00:59:33;101134.38;;;3.76;100.00
30636;BME280;17400;52.392;9.750;2023-12-07T01:02:01;101132.41;;;3.78;100.00
30636;BME280;17400;52.392;9.750;2023-12-07T01:04:30;101137.47;;;3.81;100.00
30636;BME280;17400;52.392;9.750;2023-12-07T01:06:58;101145.22;;;3.84;100.00
30636;BME280;17400;52.392;9.750;2023-12-07T01:09:26;101136.06;;;3.77;100.00
30636;BME280;17400;52.392;9.750;2023-12-07T01:11:54;101150.44;;;3.66;100.00
30636;BME280;17400;52.392;9.750;2023-12-07T01:14:22;101151.28;;;3.67;100.00
30636;BME280;17400;52.392;9.750;2023-12-07T01:16:50;101156.34;;;3.70;100.00
30636;BME280;17400;52.392;9.750;2023-12-07T01:19:17;101158.75;;;3.73;100.00
30636;BME280;17400;52.392;9.750;2023-12-07T01:21:46;101161.16;;;3.76;100.00
30636;BME280;17400;52.392;9.750;2023-12-07T01:24:14;101161.00;;;3.78;100.00
30636;BME280;17400;52.392;9.750;2023-12-07T01:26:42;101162.84;;;3.77;100.00
30636;BME280;17400;52.392;9.750;2023-12-07T01:29:10;101171.72;;;3.78;100.00
30636;BME280;17400;52.392;9.750;2023-12-07T01:31:38;101172.28;;;3.81;100.00
30636;BME280;17400;52.392;9.750;2023-12-07T01:34:06;101181.16;;;3.82;100.00
30636;BME280;17400;52.392;9.750;2023-12-07T01:36:34;101178.47;;;3.82;100.00
30636;BME280;17400;52.392;9.750;2023-12-07T01:39:03;101176.94;;;3.79;100.00
30636;BME280;17400;52.392;9.750;2023-12-07T01:41:31;101182.28;;;3.79;100.00
30636;BME280;17400;52.392;9.750;2023-12-07T01:43:58;101185.97;;;3.78;100.00
30636;BME280;17400;52.392;9.750;2023-12-07T01:46:26;101185.97;;;3.78;100.00
30636;BME280;17400;52.392;9.750;2023-12-07T01:48:54;101190.59;;;3.76;100.00
30636;BME280;17400;52.392;9.750;2023-12-07T01:51:22;101190.59;;;3.76;100.00
30636;BME280;17400;52.392;9.750;2023-12-07T01:53:50;101193.00;;;3.79;100.00
30636;BME280;17400;52.392;9.750;2023-12-07T01:56:20;101184.97;;;3.79;100.00
30636;BME280;17400;52.392;9.750;2023-12-07T01:58:49;101185.69;;;3.81;100.00
30636;BME280;17400;52.392;9.750;2023-12-07T02:01:17;101184.41;;;3.86;100.00
30636;BME280;17400;52.392;9.750;2023-12-07T02:03:45;101186.78;;;3.89;100.00
30636;BME280;17400;52.392;9.750;2023-12-07T02:06:13;101191.88;;;3.92;100.00
30636;BME280;17400;52.392;9.750;2023-12-07T02:08:43;101188.19;;;3.93;100.00
30636;BME280;17400;52.392;9.750;2023-12-07T02:11:11;101194.69;;;3.90;100.00
30636;BME280;17400;52.392;9.750;2023-12-07T02:13:40;101197.50;;;3.89;100.00
30636;BME280;17400;52.392;9.750;2023-12-07T02:16:13;101200.31;;;3.87;100.00
30636;BME280;17400;52.392;9.750;2023-12-07T02:18:48;101198.78;;;3.94;100.00
30636;BME280;17400;52.392;9.750;2023-12-07T02:21:24;101196.66;;;3.98;100.00
30636;BME280;17400;52.392;9.750;2023-12-07T02:23:53;101204.53;;;3.99;100.00
30636;BME280;17400;52.392;9.750;2023-12-07T02:26:28;101201.75;;;4.01;100.00
30636;BME280;17400;52.392;9.750;2023-12-07T02:28:57;101203.31;;;4.04;100.00
30636;BME280;17400;52.392;9.750;2023-12-07T02:31:25;101213.88;;;4.05;100.00
30636;BME280;17400;52.392;9.750;2023-12-07T02:33:53;101207.78;;;4.03;100.00
30636;BME280;17400;52.392;9.750;2023-12-07T02:36:23;101215.97;;;4.02;100.00
30636;BME280;17400;52.392;9.750;2023-12-07T02:38:53;101214.13;;;4.02;100.00
30636;BME280;17400;52.392;9.750;2023-12-07T02:41:23;101215.16;;;4.01;100.00
30636;BME280;17400;52.392;9.750;2023-12-07T02:43:54;101208.91;;;4.00;100.00
30636;BME280;17400;52.392;9.750;2023-12-07T02:46:24;101205.13;;;3.93;100.00
30636;BME280;17400;52.392;9.750;2023-12-07T02:48:52;101204.00;;;3.96;100.00
30636;BME280;17400;52.392;9.750;2023-12-07T02:51:20;101204.84;;;3.96;100.00
30636;BME280;17400;52.392;9.750;2023-12-07T02:53:47;101208.22;;;3.98;100.00
30636;BME280;17400;52.392;9.750;2023-12-07T02:56:15;101212.47;;;4.01;100.00
30636;BME280;17400;52.392;9.750;2023-12-07T02:58:43;101210.63;;;4.02;100.00
30636;BME280;17400;52.392;9.750;2023-12-07T03:01:12;101212.16;;;4.04;100.00
30636;BME280;17400;52.392;9.750;2023-12-07T03:03:39;101207.78;;;4.03;100.00
30636;BME280;17400;52.392;9.750;2023-12-07T03:06:08;101208.09;;;4.00;100.00
30636;BME280;17400;52.392;9.750;2023-12-07T03:08:36;101210.91;;;3.98;100.00
30636;BME280;17400;52.392;9.750;2023-12-07T03:11:05;101217.81;;;3.91;100.00
30636;BME280;17400;52.392;9.750;2023-12-07T03:13:33;101220.22;;;3.94;100.00
30636;BME280;17400;52.392;9.750;2023-12-07T03:16:00;101219.22;;;3.95;100.00
30636;BME280;17400;52.392;9.750;2023-12-07T03:18:30;101221.06;;;3.95;100.00
30636;BME280;17400;52.392;9.750;2023-12-07T03:20:57;101223.59;;;3.96;100.00
30636;BME280;17400;52.392;9.750;2023-12-07T03:23:25;101217.53;;;3.94;100.00
30636;BME280;17400;52.392;9.750;2023-12-07T03:25:53;101215.69;;;3.95;100.00
30636;BME280;17400;52.392;9.750;2023-12-07T03:28:20;101223.28;;;3.99;100.00
30636;BME280;17400;52.392;9.750;2023-12-07T03:30:48;101220.63;;;3.99;100.00
30636;BME280;17400;52.392;9.750;2023-12-07T03:33:16;101216.97;;;4.00;100.00
30636;BME280;17400;52.392;9.750;2023-12-07T03:35:45;101226.84;;;4.00;100.00
30636;BME280;17400;52.392;9.750;2023-12-07T03:38:14;101229.38;;;4.02;100.00
30636;BME280;17400;52.392;9.750;2023-12-07T03:40:42;101226.84;;;4.00;100.00
30636;BME280;17400;52.392;9.750;2023-12-07T03:43:17;101230.34;;;4.00;100.00
30636;BME280;17400;52.392;9.750;2023-12-07T03:45:45;101229.06;;;4.05;100.00
30636;BME280;17400;52.392;9.750;2023-12-07T03:48:12;101239.94;;;4.03;100.00
30636;BME280;17400;52.392;9.750;2023-12-07T03:50:40;101238.81;;;4.06;100.00
30636;BME280;17400;52.392;9.750;2023-12-07T03:53:09;101237.69;;;4.08;100.00
30636;BME280;17400;52.392;9.750;2023-12-07T03:55:37;101243.19;;;4.07;100.00
30636;BME280;17400;52.392;9.750;2023-12-07T03:58:05;101255.47;;;4.09;100.00
30636;BME280;17400;52.392;9.750;2023-12-07T04:00:33;101256.28;;;4.10;100.00
30636;BME280;17400;52.392;9.750;2023-12-07T04:03:00;101255.59;;;4.08;100.00
30636;BME280;17400;52.392;9.750;2023-12-07T04:05:28;101249.38;;;4.07;100.00
30636;BME280;17400;52.392;9.750;2023-12-07T04:07:56;101253.06;;;4.06;100.00
30636;BME280;17400;52.392;9.750;2023-12-07T04:10:25;101254.19;;;4.04;100.00
30636;BME280;17400;52.392;9.750;2023-12-07T04:12:53;101249.81;;;4.03;100.00
30636;BME280;17400;52.392;9.750;2023-12-07T04:15:20;101256.75;;;4.05;100.00
30636;BME280;17400;52.392;9.750;2023-12-07T04:17:49;101250.50;;;4.05;100.00
30636;BME280;17400;52.392;9.750;2023-12-07T04:20:17;101253.75;;;4.08;100.00
30636;BME280;17400;52.392;9.750;2023-12-07T04:22:45;101254.75;;;4.07;100.00
30636;BME280;17400;52.392;9.750;2023-12-07T04:25:13;101257.56;;;4.06;100.00
30636;BME280;17400;52.392;9.750;2023-12-07T04:27:42;101259.28;;;4.07;100.00
30636;BME280;17400;52.392;9.750;2023-12-07T04:30:11;101257.41;;;4.07;100.00
30636;BME280;17400;52.392;9.750;2023-12-07T04:32:39;101253.19;;;4.05;100.00
30636;BME280;17400;52.392;9.750;2023-12-07T04:35:08;101258.69;;;4.03;100.00
30636;BME280;17400;52.392;9.750;2023-12-07T04:37:36;101258.44;;;4.06;100.00
30636;BME280;17400;52.392;9.750;2023-12-07T04:40:05;101258.28;;;4.08;100.00
30636;BME280;17400;52.392;9.750;2023-12-07T04:42:33;101260.53;;;4.12;100.00
30636;BME280;17400;52.392;9.750;2023-12-07T04:45:02;101256.03;;;4.13;100.00
30636;BME280;17400;52.392;9.750;2023-12-07T04:47:31;101259.53;;;4.13;100.00
30636;BME280;17400;52.392;9.750;2023-12-07T04:49:59;101261.50;;;4.11;100.00
30636;BME280;17400;52.392;9.750;2023-12-07T04:52:27;101260.97;;;4.08;100.00
30636;BME280;17400;52.392;9.750;2023-12-07T04:54:55;101269.97;;;4.07;100.00
30636;BME280;17400;52.392;9.750;2023-12-07T04:57:23;101263.78;;;4.06;100.00
30636;BME280;17400;52.392;9.750;2023-12-07T04:59:51;101259.13;;;4.08;100.00
30636;BME280;17400;52.392;9.750;2023-12-07T05:02:20;101259.97;;;3.99;100.00
30636;BME280;17400;52.392;9.750;2023-12-07T05:04:48;101253.63;;;4.00;100.00
30636;BME280;17400;52.392;9.750;2023-12-07T05:07:16;101256.88;;;4.04;100.00
30636;BME280;17400;52.392;9.750;2023-12-07T05:09:44;101258.44;;;4.06;100.00
30636;BME280;17400;52.392;9.750;2023-12-07T05:12:12;101262.78;;;4.07;100.00
30636;BME280;17400;52.392;9.750;2023-12-07T05:14:40;101263.50;;;4.09;100.00
30636;BME280;17400;52.392;9.750;2023-12-07T05:17:08;101260.97;;;4.08;100.00
30636;BME280;17400;52.392;9.750;2023-12-07T05:19:37;101266.88;;;4.11;100.00
30636;BME280;17400;52.392;9.750;2023-12-07T05:22:05;101263.50;;;4.09;100.00
30636;BME280;17400;52.392;9.750;2023-12-07T05:24:34;101261.50;;;4.11;100.00
30636;BME280;17400;52.392;9.750;2023-12-07T05:27:04;101266.88;;;4.11;100.00
30636;BME280;17400;52.392;9.750;2023-12-07T05:29:32;101270.56;;;4.10;100.00
30636;BME280;17400;52.392;9.750;2023-12-07T05:32:00;101265.19;;;4.10;100.00
30636;BME280;17400;52.392;9.750;2023-12-07T05:34:27;101272.13;;;4.13;100.00
30636;BME280;17400;52.392;9.750;2023-12-07T05:36:57;101271.25;;;4.12;100.00
30636;BME280;17400;52.392;9.750;2023-12-07T05:39:25;101264.91;;;4.13;100.00
30636;BME280;17400;52.392;9.750;2023-12-07T05:41:53;101277.19;;;4.16;100.00
30636;BME280;17400;52.392;9.750;2023-12-07T05:44:20;101268.31;;;4.15;100.00
30636;BME280;17400;52.392;9.750;2023-12-07T05:46:49;101268.31;;;4.15;100.00
30636;BME280;17400;52.392;9.750;2023-12-07T05:49:17;101271.97;;;4.14;100.00
30636;BME280;17400;52.392;9.750;2023-12-07T05:51:45;101269.97;;;4.16;100.00
30636;BME280;17400;52.392;9.750;2023-12-07T05:54:14;101272.66;;;4.16;100.00
30636;BME280;17400;52.392;9.750;2023-12-07T05:56:42;101271.66;;;4.17;100.00
30636;BME280;17400;52.392;9.750;2023-12-07T05:59:10;101262.94;;;4.15;100.00
30636;BME280;17400;52.392;9.750;2023-12-07T06:01:37;101270.69;;;4.19;100.00
30636;BME280;17400;52.392;9.750;2023-12-07T06:04:08;101275.75;;;4.22;100.00
30636;BME280;17400;52.392;9.750;2023-12-07T06:06:36;101271.13;;;4.24;100.00
30636;BME280;17400;52.392;9.750;2023-12-07T06:09:04;101270.97;;;4.25;100.00
30636;BME280;17400;52.392;9.750;2023-12-07T06:11:34;101272.53;;;4.28;100.00
30636;BME280;17400;52.392;9.750;2023-12-07T06:14:02;101275.19;;;4.28;100.00
30636;BME280;17400;52.392;9.750;2023-12-07T06:16:32;101279.56;;;4.29;100.00
30636;BME280;17400;52.392;9.750;2023-12-07T06:19:00;101280.72;;;4.26;100.00
30636;BME280;17400;52.392;9.750;2023-12-07T06:21:28;101281.53;;;4.27;100.00
30636;BME280;17400;52.392;9.750;2023-12-07T06:23:57;101284.50;;;4.24;100.00
30636;BME280;17400;52.392;9.750;2023-12-07T06:26:25;101284.38;;;4.25;100.00
30636;BME280;17400;52.392;9.750;2023-12-07T06:28:54;101293.25;;;4.26;100.00
30636;BME280;17400;52.392;9.750;2023-12-07T06:31:22;101296.94;;;4.25;100.00
30636;BME280;17400;52.392;9.750;2023-12-07T06:33:50;101291.56;;;4.25;100.00
30636;BME280;17400;52.392;9.750;2023-12-07T06:36:18;101298.91;;;4.23;100.00
30636;BME280;17400;52.392;9.750;2023-12-07T06:38:47;101306.66;;;4.26;100.00
30636;BME280;17400;52.392;9.750;2023-12-07T06:41:15;101301.28;;;4.26;100.00
30636;BME280;17400;52.392;9.750;2023-12-07T06:43:43;101306.78;;;4.24;100.00
30636;BME280;17400;52.392;9.750;2023-12-07T06:46:13;101302.41;;;4.23;100.00
30636;BME280;17400;52.392;9.750;2023-12-07T06:48:43;101310.59;;;4.22;100.00
30636;BME280;17400;52.392;9.750;2023-12-07T06:51:10;101314.00;;;4.24;100.00
30636;BME280;17400;52.392;9.750;2023-12-07T06:53:39;101312.72;;;4.28;100.00
30636;BME280;17400;52.392;9.750;2023-12-07T06:56:07;101310.34;;;4.25;100.00
30636;BME280;17400;52.392;9.750;2023-12-07T06:58:35;101319.06;;;4.27;100.00
30636;BME280;17400;52.392;9.750;2023-12-07T07:01:03;101319.50;;;4.22;100.00
30636;BME280;17400;52.392;9.750;2023-12-07T07:03:33;101318.50;;;4.23;100.00
30636;BME280;17400;52.392;9.750;2023-12-07T07:06:02;101323.84;;;4.23;100.00
30636;BME280;17400;52.392;9.750;2023-12-07T07:08:29;101319.50;;;4.22;100.00
30636;BME280;17400;52.392;9.750;2023-12-07T07:10:57;101321.06;;;4.25;100.00
30636;BME280;17400;52.392;9.750;2023-12-07T07:13:25;101318.09;;;4.28;100.00
30636;BME280;17400;52.392;9.750;2023-12-07T07:15:53;101325.28;;;4.27;100.00
30636;BME280;17400;52.392;9.750;2023-12-07T07:18:21;101319.22;;;4.25;100.00
30636;BME280;17400;52.392;9.750;2023-12-07T07:20:52;101326.41;;;4.25;100.00
30636;BME280;17400;52.392;9.750;2023-12-07T07:23:19;101323.44;;;4.28;100.00
30636;BME280;17400;52.392;9.750;2023-12-07T07:25:47;101330.75;;;4.26;100.00
30636;BME280;17400;52.392;9.750;2023-12-07T07:28:15;101327.09;;;4.27;100.00
30636;BME280;17400;52.392;9.750;2023-12-07T07:30:43;101329.50;;;4.30;100.00
30636;BME280;17400;52.392;9.750;2023-12-07T07:33:10;101326.81;;;4.30;100.00
30636;BME280;17400;52.392;9.750;2023-12-07T07:35:38;101336.69;;;4.29;100.00
30636;BME280;17400;52.392;9.750;2023-12-07T07:38:07;101330.34;;;4.30;100.00
30636;BME280;17400;52.392;9.750;2023-12-07T07:40:35;101330.22;;;4.32;100.00
30636;BME280;17400;52.392;9.750;2023-12-07T07:43:02;101326.41;;;4.34;100.00
30636;BME280;17400;52.392;9.750;2023-12-07T07:45:30;101333.47;;;4.36;100.00
30636;BME280;17400;52.392;9.750;2023-12-07T07:47:58;101335.16;;;4.37;100.00
30636;BME280;17400;52.392;9.750;2023-12-07T07:50:26;101336.00;;;4.37;100.00
30636;BME280;17400;52.392;9.750;2023-12-07T07:52:55;101337.69;;;4.38;100.00
30636;BME280;17400;52.392;9.750;2023-12-07T07:55:24;101339.38;;;4.39;100.00
30636;BME280;17400;52.392;9.750;2023-12-07T07:57:51;101338.53;;;4.39;100.00
30636;BME280;17400;52.392;9.750;2023-12-07T08:00:20;101335.03;;;4.38;100.00
30636;BME280;17400;52.392;9.750;2023-12-07T08:02:48;101342.34;;;4.36;100.00
30636;BME280;17400;52.392;9.750;2023-12-07T08:05:16;101344.72;;;4.39;100.00
30636;BME280;17400;52.392;9.750;2023-12-07T08:07:45;101349.97;;;4.41;100.00
30636;BME280;17400;52.392;9.750;2023-12-07T08:10:12;101348.00;;;4.43;100.00
30636;BME280;17400;52.392;9.750;2023-12-07T08:12:41;101348.69;;;4.45;100.00
30636;BME280;17400;52.392;9.750;2023-12-07T08:15:09;101352.22;;;4.45;100.00
30636;BME280;17400;52.392;9.750;2023-12-07T08:17:38;101362.09;;;4.45;100.00
30636;BME280;17400;52.392;9.750;2023-12-07T08:20:08;101348.41;;;4.48;100.00
30636;BME280;17400;52.392;9.750;2023-12-07T08:22:36;101345.59;;;4.49;100.00
30636;BME280;17400;52.392;9.750;2023-12-07T08:25:05;101347.00;;;4.54;100.00
30636;BME280;17400;52.392;9.750;2023-12-07T08:27:38;101352.09;;;4.57;100.00
30636;BME280;17400;52.392;9.750;2023-12-07T08:30:08;101355.75;;;4.56;100.00
30636;BME280;17400;52.392;9.750;2023-12-07T08:32:37;101354.78;;;4.57;100.00
30636;BME280;17400;52.392;9.750;2023-12-07T08:35:06;101354.88;;;4.75;100.00
30636;BME280;17400;52.392;9.750;2023-12-07T08:37:37;101363.88;;;4.93;100.00
30636;BME280;17400;52.392;9.750;2023-12-07T08:40:06;101360.22;;;5.04;100.00
30636;BME280;17400;52.392;9.750;2023-12-07T08:42:34;101357.91;;;5.09;100.00
30636;BME280;17400;52.392;9.750;2023-12-07T08:45:02;101353.09;;;5.13;100.00
30636;BME280;17400;52.392;9.750;2023-12-07T08:47:31;101352.44;;;5.11;100.00
30636;BME280;17400;52.392;9.750;2023-12-07T08:49:59;101350.88;;;5.08;100.00
30636;BME280;17400;52.392;9.750;2023-12-07T08:52:27;101350.31;;;5.05;100.00
30636;BME280;17400;52.392;9.750;2023-12-07T08:55:10;101359.78;;;4.99;100.00
30636;BME280;17400;52.392;9.750;2023-12-07T08:57:38;101354.00;;;4.94;100.00
30636;BME280;17400;52.392;9.750;2023-12-07T09:00:07;101362.63;;;4.88;100.00
30636;BME280;17400;52.392;9.750;2023-12-07T09:02:36;101361.22;;;4.83;100.00
30636;BME280;17400;52.392;9.750;2023-12-07T09:05:13;101360.97;;;4.77;100.00
30636;BME280;17400;52.392;9.750;2023-12-07T09:07:41;101366.63;;;4.74;100.00
30636;BME280;17400;52.392;9.750;2023-12-07T09:10:09;101370.44;;;4.71;100.00
30636;BME280;17400;52.392;9.750;2023-12-07T09:12:37;101365.63;;;4.65;100.00
30636;BME280;17400;52.392;9.750;2023-12-07T09:15:06;101364.78;;;4.64;100.00
30636;BME280;17400;52.392;9.750;2023-12-07T09:17:37;101372.41;;;4.69;100.00
30636;BME280;17400;52.392;9.750;2023-12-07T09:20:07;101365.06;;;4.71;100.00
30636;BME280;17400;52.392;9.750;2023-12-07T09:22:39;101374.50;;;4.65;100.00
30636;BME280;17400;52.392;9.750;2023-12-07T09:25:08;101380.00;;;4.64;100.00
30636;BME280;17400;52.392;9.750;2023-12-07T09:27:38;101384.97;;;4.69;100.00
30636;BME280;17400;52.392;9.750;2023-12-07T09:30:06;101384.81;;;4.70;100.00
30636;BME280;17400;52.392;9.750;2023-12-07T09:32:40;101381.69;;;4.75;100.00
30636;BME280;17400;52.392;9.750;2023-12-07T09:35:11;101388.34;;;4.80;100.00
30636;BME280;17400;52.392;9.750;2023-12-07T09:37:42;101387.63;;;4.78;100.00
30636;BME280;17400;52.392;9.750;2023-12-07T09:40:14;101393.28;;;4.75;100.00
30636;BME280;17400;52.392;9.750;2023-12-07T09:42:42;101391.88;;;4.71;100.00
30636;BME280;17400;52.392;9.750;2023-12-07T09:45:11;101386.53;;;4.71;100.00
30636;BME280;17400;52.392;9.750;2023-12-07T09:47:41;101379.47;;;4.70;100.00
30636;BME280;17400;52.392;9.750;2023-12-07T09:50:12;101374.66;;;4.64;100.00
30636;BME280;17400;52.392;9.750;2023-12-07T09:52:42;101380.59;;;4.67;100.00
30636;BME280;17400;52.392;9.750;2023-12-07T09:55:19;101376.22;;;4.66;100.00
30636;BME280;17400;52.392;9.750;2023-12-07T09:57:49;101381.16;;;4.71;100.00
30636;BME280;17400;52.392;9.750;2023-12-07T10:00:17;101369.28;;;4.64;100.00
30636;BME280;17400;52.392;9.750;2023-12-07T10:02:46;101375.22;;;4.67;100.00
30636;BME280;17400;52.392;9.750;2023-12-07T10:05:14;101371.72;;;4.67;100.00
30636;BME280;17400;52.392;9.750;2023-12-07T10:07:45;101368.72;;;4.70;100.00
30636;BME280;17400;52.392;9.750;2023-12-07T10:10:15;101371.25;;;4.72;100.00
30636;BME280;17400;52.392;9.750;2023-12-07T10:12:47;101371.84;;;4.75;100.00
30636;BME280;17400;52.392;9.750;2023-12-07T10:15:16;101374.22;;;4.78;100.00
30636;BME280;17400;52.392;9.750;2023-12-07T10:17:47;101376.63;;;4.72;100.00
30636;BME280;17400;52.392;9.750;2023-12-07T10:20:16;101385.13;;;4.67;100.00
30636;BME280;17400;52.392;9.750;2023-12-07T10:22:45;101373.22;;;4.70;100.00
30636;BME280;17400;52.392;9.750;2023-12-07T10:25:14;101372.41;;;4.69;100.00
30636;BME280;17400;52.392;9.750;2023-12-07T10:27:42;101375.78;;;4.71;100.00
30636;BME280;17400;52.392;9.750;2023-12-07T10:30:10;101373.81;;;4.73;100.00
30636;BME280;17400;52.392;9.750;2023-12-07T10:32:39;101373.13;;;4.71;100.00
30636;BME280;17400;52.392;9.750;2023-12-07T10:35:08;101376.91;;;4.78;100.00
30636;BME280;17400;52.392;9.750;2023-12-07T10:37:36;101366.31;;;4.77;100.00
30636;BME280;17400;52.392;9.750;2023-12-07T10:40:05;101374.22;;;4.78;100.00
30636;BME280;17400;52.392;9.750;2023-12-07T10:42:34;101368.72;;;4.80;100.00
30636;BME280;17400;52.392;9.750;2023-12-07T10:45:06;101365.31;;;4.88;100.00
30636;BME280;17400;52.392;9.750;2023-12-07T10:47:36;101365.31;;;4.88;100.00
30636;BME280;17400;52.392;9.750;2023-12-07T10:50:07;101358.66;;;4.92;100.00
30636;BME280;17400;52.392;9.750;2023-12-07T10:52:44;101361.91;;;4.95;100.00
30636;BME280;17400;52.392;9.750;2023-12-07T10:55:16;101357.25;;;4.88;100.00
30636;BME280;17400;52.392;9.750;2023-12-07T10:57:46;101350.47;;;4.93;100.00
30636;BME280;17400;52.392;9.750;2023-12-07T11:00:16;101359.09;;;4.97;100.00
30636;BME280;17400;52.392;9.750;2023-12-07T11:02:59;101357.13;;;4.99;100.00
30636;BME280;17400;52.392;9.750;2023-12-07T11:05:28;101350.47;;;5.03;100.00
30636;BME280;17400;52.392;9.750;2023-12-07T11:08:04;101353.97;;;5.04;100.00
30636;BME280;17400;52.392;9.750;2023-12-07T11:10:39;101356.50;;;5.05;100.00
30636;BME280;17400;52.392;9.750;2023-12-07T11:13:16;101350.88;;;5.08;100.00
30636;BME280;17400;52.392;9.750;2023-12-07T11:15:45;101345.66;;;5.07;100.00
30636;BME280;17400;52.392;9.750;2023-12-07T11:18:13;101348.16;;;5.18;100.00
30636;BME280;17400;52.392;9.750;2023-12-07T11:20:42;101341.59;;;5.30;100.00
30636;BME280;17400;52.392;9.750;2023-12-07T11:23:12;101340.34;;;5.34;100.00
30636;BME280;17400;52.392;9.750;2023-12-07T11:25:43;101336.13;;;5.32;100.00
30636;BME280;17400;52.392;9.750;2023-12-07T11:28:12;101333.44;;;5.32;100.00
30636;BME280;17400;52.392;9.750;2023-12-07T11:30:42;101326.66;;;5.28;100.00
30636;BME280;17400;52.392;9.750;2023-12-07T11:33:12;101321.88;;;5.22;100.00
30636;BME280;17400;52.392;9.750;2023-12-07T11:36:05;101323.44;;;5.14;100.00
30636;BME280;17400;52.392;9.750;2023-12-07T11:38:35;101323.69;;;5.21;100.00
30636;BME280;17400;52.392;9.750;2023-12-07T11:41:03;101319.19;;;5.22;100.00
30636;BME280;17400;52.392;9.750;2023-12-07T11:43:40;101315.84;;;5.10;100.00
30636;BME280;17400;52.392;9.750;2023-12-07T11:46:11;101313.56;;;5.15;100.00
30636;BME280;17400;52.392;9.750;2023-12-07T11:48:39;101316.09;;;5.16;100.00
30636;BME280;17400;52.392;9.750;2023-12-07T11:51:07;101316.78;;;5.18;100.00
30636;BME280;17400;52.392;9.750;2023-12-07T11:53:37;101314.50;;;5.24;100.00
30636;BME280;17400;52.392;9.750;2023-12-07T11:56:07;101313.56;;;5.15;100.00
30636;BME280;17400;52.392;9.750;2023-12-07T11:58:37;101314.50;;;5.24;100.00
30636;BME280;17400;52.392;9.750;2023-12-07T12:01:07;101321.00;;;5.31;100.00
30636;BME280;17400;52.392;9.750;2023-12-07T12:03:36;101312.47;;;5.36;100.00
30636;BME280;17400;52.392;9.750;2023-12-07T12:06:05;101322.06;;;5.38;100.00
30636;BME280;17400;52.392;9.750;2023-12-07T12:08:36;101315.03;;;5.37;100.00
30636;BME280;17400;52.392;9.750;2023-12-07T12:11:04;101313.34;;;5.36;100.00
30636;BME280;17400;52.392;9.750;2023-12-07T12:13:34;101310.34;;;5.39;100.00
30636;BME280;17400;52.392;9.750;2023-12-07T12:16:04;101311.59;;;5.45;100.00
30636;BME280;17400;52.392;9.750;2023-12-07T12:18:33;101308.06;;;5.44;100.00
30636;BME280;17400;52.392;9.750;2023-12-07T12:21:02;101303.00;;;5.41;100.00
30636;BME280;17400;52.392;9.750;2023-12-07T12:23:30;101299.84;;;5.46;100.00
30636;BME280;17400;52.392;9.750;2023-12-07T12:26:00;101296.03;;;5.48;100.00
30636;BME280;17400;52.392;9.750;2023-12-07T12:28:28;101300.41;;;5.49;100.00
30636;BME280;17400;52.392;9.750;2023-12-07T12:30:59;101293.50;;;5.47;100.00
30636;BME280;17400;52.392;9.750;2023-12-07T12:33:27;101292.09;;;5.43;100.00
30636;BME280;17400;52.392;9.750;2023-12-07T12:36:02;101282.50;;;5.40;100.00
30636;BME280;17400;52.392;9.750;2023-12-07T12:38:30;101288.44;;;5.44;100.00
30636;BME280;17400;52.392;9.750;2023-12-07T12:41:10;101287.56;;;5.43;100.00
30636;BME280;17400;52.392;9.750;2023-12-07T12:43:38;101283.50;;;5.39;100.00
30636;BME280;17400;52.392;9.750;2023-12-07T12:46:06;101289.84;;;5.38;100.00
30636;BME280;17400;52.392;9.750;2023-12-07T12:48:34;101279.97;;;5.39;100.00
30636;BME280;17400;52.392;9.750;2023-12-07T12:51:07;101285.50;;;5.37;100.00
30636;BME280;17400;52.392;9.750;2023-12-07T12:53:36;101277.44;;;5.37;100.00
30636;BME280;17400;52.392;9.750;2023-12-07T12:56:10;101281.28;;;5.34;100.00
30636;BME280;17400;52.392;9.750;2023-12-07T12:58:38;101281.94;;;5.37;100.00